Time;durP1;ratioP1;P1;durP2;ratioP2;P2;SDS_P1;SDS_P2;PMS_P1;PMS_P2;Temp;Humidity;BMP_temperature;BMP_pressure;BME280_temperature;BME280_humidity;BME280_pressure;Samples;Min_cycle;Max_cycle;Signal;HPM_P1;HPM_P2
2020/12/30 00:00:11;;;;;;;35.87;19.87;;;4.40;92.40;;;;;;5067833;28;20067;-74
2020/12/30 00:02:37;;;;;;;34.83;20.77;;;4.40;92.40;;;;;;5093154;28;20074;-74
2020/12/30 00:05:06;;;;;;;36.67;20.90;;;4.30;92.40;;;;;;5094592;28;20060;-74
2020/12/30 00:07:33;;;;;;;35.17;20.53;;;4.30;92.40;;;;;;5096746;28;20490;-74
2020/12/30 00:09:59;;;;;;;41.50;22.60;;;4.30;92.30;;;;;;5074636;28;20067;-74
2020/12/30 00:12:28;;;;;;;42.67;22.67;;;4.20;92.20;;;;;;5075040;28;20056;-74
2020/12/30 00:14:56;;;;;;;35.17;21.20;;;4.20;92.20;;;;;;5076255;28;20029;-73
2020/12/30 00:17:22;;;;;;;39.67;20.53;;;4.10;92.30;;;;;;5074949;28;20035;-73
2020/12/30 00:19:48;;;;;;;38.13;20.73;;;4.00;92.30;;;;;;5074800;28;20549;-74
2020/12/30 00:22:13;;;;;;;42.23;22.43;;;4.00;92.30;;;;;;5091062;28;20024;-74
2020/12/30 00:24:39;;;;;;;37.60;21.10;;;4.00;92.30;;;;;;5095279;28;20035;-74
2020/12/30 00:27:05;;;;;;;40.00;21.97;;;3.90;92.30;;;;;;5096650;28;20078;-73
2020/12/30 00:29:31;;;;;;;43.87;24.67;;;3.80;92.30;;;;;;5078284;28;20070;-74
2020/12/30 00:31:57;;;;;;;38.83;22.53;;;3.80;92.30;;;;;;5074305;28;20550;-74
2020/12/30 00:34:23;;;;;;;39.93;22.73;;;3.80;92.30;;;;;;5074559;28;20025;-74
2020/12/30 00:36:48;;;;;;;38.07;22.40;;;3.70;92.30;;;;;;5074686;28;20028;-74
2020/12/30 00:39:14;;;;;;;42.00;22.70;;;3.70;92.30;;;;;;5074564;28;20110;-74
2020/12/30 00:41:40;;;;;;;37.47;21.20;;;3.60;92.30;;;;;;5075002;28;20423;-74
2020/12/30 00:44:06;;;;;;;43.33;22.20;;;3.60;92.30;;;;;;5057711;28;20107;-74
2020/12/30 00:46:31;;;;;;;37.07;21.87;;;3.50;92.30;;;;;;5074422;28;20029;-74
2020/12/30 00:48:57;;;;;;;38.97;22.07;;;3.50;92.40;;;;;;5075573;28;20096;-74
2020/12/30 00:51:23;;;;;;;37.97;23.10;;;3.50;92.40;;;;;;5081335;28;20024;-74
2020/12/30 00:53:48;;;;;;;44.67;24.93;;;3.40;92.40;;;;;;5094542;28;20024;-74
2020/12/30 00:56:14;;;;;;;42.90;24.27;;;3.40;92.40;;;;;;5094464;28;20032;-73
2020/12/30 00:58:40;;;;;;;43.07;23.53;;;3.30;92.40;;;;;;5094644;28;20027;-73
2020/12/30 01:01:08;;;;;;;41.47;22.73;;;3.30;92.40;;;;;;5073801;28;20020;-73
2020/12/30 01:03:38;;;;;;;42.40;25.13;;;3.20;92.40;;;;;;5075331;28;20078;-74
2020/12/30 01:06:04;;;;;;;41.60;24.80;;;3.20;92.40;;;;;;5075377;28;20033;-73
2020/12/30 01:08:30;;;;;;;50.70;25.57;;;3.10;92.50;;;;;;5057501;28;20395;-74
2020/12/30 01:10:55;;;;;;;49.03;25.53;;;3.10;92.50;;;;;;5078005;28;20058;-73
2020/12/30 01:13:22;;;;;;;53.70;26.80;;;3.10;92.50;;;;;;5071800;28;20410;-74
2020/12/30 01:15:47;;;;;;;43.87;25.43;;;3.10;92.60;;;;;;5073852;28;20025;-74
2020/12/30 01:18:14;;;;;;;48.87;25.20;;;3.00;92.80;;;;;;5073731;28;20025;-73
2020/12/30 01:20:39;;;;;;;44.60;24.07;;;3.00;92.60;;;;;;5074389;28;20506;-73
2020/12/30 01:23:06;;;;;;;45.80;25.30;;;3.00;92.80;;;;;;5077105;28;20060;-73
2020/12/30 01:25:31;;;;;;;51.30;27.80;;;2.90;92.60;;;;;;5076835;28;20024;-74
2020/12/30 01:27:57;;;;;;;48.40;27.13;;;2.80;92.60;;;;;;5093944;28;20031;-74
2020/12/30 01:30:23;;;;;;;44.97;25.37;;;2.80;92.80;;;;;;5077001;28;20544;-73
2020/12/30 01:32:49;;;;;;;45.53;26.27;;;2.80;92.80;;;;;;5077410;28;20028;-73
2020/12/30 01:35:15;;;;;;;43.77;24.50;;;2.80;92.90;;;;;;5073486;28;20032;-73
2020/12/30 01:37:41;;;;;;;49.47;26.40;;;2.80;93.00;;;;;;5057186;28;20074;-73
2020/12/30 01:40:06;;;;;;;51.70;25.63;;;2.80;93.10;;;;;;5075127;28;20154;-73
2020/12/30 01:42:48;;;;;;;50.63;29.10;;;2.80;93.10;;;;;;5089147;28;20525;-73
2020/12/30 01:45:14;;;;;;;47.83;27.23;;;2.80;93.20;;;;;;5092989;28;20066;-74
2020/12/30 01:47:43;;;;;;;50.87;26.90;;;2.80;93.20;;;;;;5093560;28;20024;-74
2020/12/30 01:50:09;;;;;;;49.87;26.67;;;2.90;93.30;;;;;;5093369;28;20016;-74
2020/12/30 01:52:35;;;;;;;50.77;27.67;;;2.90;93.40;;;;;;5091572;28;20089;-74
2020/12/30 01:55:01;;;;;;;43.93;25.57;;;2.90;93.40;;;;;;5076386;28;20571;-74
2020/12/30 01:57:28;;;;;;;45.60;25.30;;;2.90;93.40;;;;;;5094651;28;20020;-73
2020/12/30 01:59:54;;;;;;;41.97;22.93;;;2.90;93.40;;;;;;5087081;28;20044;-74
2020/12/30 02:02:23;;;;;;;51.47;27.77;;;2.90;93.40;;;;;;5073325;28;20028;-75
2020/12/30 02:04:51;;;;;;;44.87;25.70;;;2.90;93.40;;;;;;5074781;28;20047;-74
2020/12/30 02:07:18;;;;;;;47.13;25.97;;;2.90;93.40;;;;;;5073923;28;20486;-74
2020/12/30 02:09:45;;;;;;;53.20;26.33;;;2.90;93.40;;;;;;5075632;28;20467;-74
2020/12/30 02:12:11;;;;;;;44.80;26.17;;;2.90;93.40;;;;;;5076263;28;20032;-74
2020/12/30 02:14:37;;;;;;;45.70;26.77;;;2.90;93.40;;;;;;5059542;28;20467;-74
2020/12/30 02:17:03;;;;;;;50.47;25.03;;;2.90;93.40;;;;;;5076066;28;20024;-74
2020/12/30 02:19:29;;;;;;;46.53;25.77;;;3.00;93.40;;;;;;5092255;28;20031;-74
2020/12/30 02:22:00;;;;;;;44.63;25.70;;;3.00;93.40;;;;;;5092264;28;20024;-74
2020/12/30 02:24:30;;;;;;;43.13;25.73;;;3.00;93.40;;;;;;5092430;28;20131;-74
2020/12/30 02:26:57;;;;;;;44.77;25.13;;;3.00;93.60;;;;;;5075796;28;20020;-75
2020/12/30 02:29:23;;;;;;;50.20;27.87;;;3.00;93.30;;;;;;5093863;28;20102;-74
2020/12/30 02:31:49;;;;;;;47.10;26.63;;;2.90;93.30;;;;;;5073014;28;20060;-74
2020/12/30 02:34:15;;;;;;;44.90;25.93;;;3.00;93.30;;;;;;5055775;28;20435;-81
2020/12/30 02:36:41;;;;;;;48.23;25.50;;;3.00;93.20;;;;;;5073053;28;20067;-81
2020/12/30 02:39:07;;;;;;;42.80;24.37;;;2.90;93.20;;;;;;5055857;28;20028;-81
2020/12/30 02:41:33;;;;;;;45.13;25.70;;;2.90;93.20;;;;;;5090426;28;20524;-81
2020/12/30 02:44:01;;;;;;;48.27;27.27;;;3.00;93.30;;;;;;5093944;28;20040;-80
2020/12/30 02:46:28;;;;;;;42.00;25.43;;;3.00;93.20;;;;;;5094086;28;20048;-81
2020/12/30 02:48:53;;;;;;;43.13;23.10;;;2.90;93.20;;;;;;5093830;28;20039;-81
2020/12/30 02:51:19;;;;;;;44.67;23.53;;;2.90;93.20;;;;;;5075557;28;20025;-81
2020/12/30 02:53:45;;;;;;;44.70;24.17;;;2.90;93.10;;;;;;5093793;28;20035;-79
2020/12/30 02:56:10;;;;;;;41.07;23.37;;;2.80;93.40;;;;;;5075770;28;20091;-81
2020/12/30 02:58:36;;;;;;;45.27;24.03;;;2.80;93.10;;;;;;5093915;28;20039;-81
2020/12/30 03:01:02;;;;;;;46.10;24.73;;;2.80;93.10;;;;;;5092027;28;20059;-81
2020/12/30 03:03:27;;;;;;;46.87;24.33;;;2.80;93.10;;;;;;5093821;28;20119;-80
2020/12/30 03:05:56;;;;;;;43.53;24.63;;;2.80;93.20;;;;;;5093606;28;20032;-80
2020/12/30 03:08:21;;;;;;;45.70;24.00;;;2.80;93.30;;;;;;5092854;28;20038;-80
2020/12/30 03:10:47;;;;;;;43.13;24.00;;;2.80;93.30;;;;;;5083546;28;20112;-79
2020/12/30 03:13:12;;;;;;;44.77;23.50;;;2.80;93.30;;;;;;5072096;28;20033;-81
2020/12/30 03:15:38;;;;;;;42.57;22.80;;;2.80;93.30;;;;;;5072298;28;20044;-80
2020/12/30 03:18:03;;;;;;;39.10;23.47;;;2.70;93.20;;;;;;5072251;28;20039;-81
2020/12/30 03:20:29;;;;;;;40.77;23.87;;;2.70;93.20;;;;;;5080306;28;20036;-80
2020/12/30 03:22:55;;;;;;;40.30;22.33;;;2.70;93.30;;;;;;5074852;28;20059;-74
2020/12/30 03:25:20;;;;;;;41.57;22.10;;;2.70;93.30;;;;;;5075138;28;20046;-74
2020/12/30 03:27:46;;;;;;;46.83;24.07;;;2.70;93.40;;;;;;5093366;28;20103;-74
2020/12/30 03:30:11;;;;;;;42.17;22.73;;;2.70;93.40;;;;;;5054454;28;20052;-74
2020/12/30 03:32:37;;;;;;;42.07;22.83;;;2.70;93.50;;;;;;5055119;28;20036;-74
2020/12/30 03:35:03;;;;;;;39.40;22.83;;;2.70;93.50;;;;;;5071733;28;20037;-74
2020/12/30 03:37:29;;;;;;;38.63;22.40;;;2.80;93.60;;;;;;5072359;28;20056;-74
2020/12/30 03:39:55;;;;;;;41.43;22.37;;;2.80;93.60;;;;;;5089386;28;20056;-74
2020/12/30 03:42:20;;;;;;;40.50;22.60;;;2.80;93.60;;;;;;5096113;28;20085;-74
2020/12/30 03:44:46;;;;;;;38.10;21.50;;;2.70;93.50;;;;;;5095756;28;20547;-74
2020/12/30 03:47:11;;;;;;;40.40;22.40;;;2.80;93.60;;;;;;5078879;28;20028;-74
2020/12/30 03:49:37;;;;;;;49.23;22.43;;;2.80;93.60;;;;;;5067514;28;20028;-74
2020/12/30 03:52:03;;;;;;;40.33;23.03;;;2.80;93.60;;;;;;5075478;28;20045;-74
2020/12/30 03:54:31;;;;;;;37.30;22.33;;;2.80;93.70;;;;;;5075402;28;20050;-74
2020/12/30 03:56:57;;;;;;;39.07;20.60;;;2.90;93.80;;;;;;5058740;28;20021;-74
2020/12/30 03:59:22;;;;;;;40.33;22.07;;;2.90;93.80;;;;;;5067748;28;20490;-74
2020/12/30 04:01:48;;;;;;;41.57;21.80;;;2.90;93.80;;;;;;5062012;28;20027;-75
2020/12/30 04:04:15;;;;;;;43.63;22.60;;;3.00;93.90;;;;;;5096717;28;20073;-74
2020/12/30 04:06:44;;;;;;;43.33;23.23;;;3.00;93.80;;;;;;5095440;28;20027;-74
2020/12/30 04:09:12;;;;;;;38.20;20.67;;;3.00;93.80;;;;;;5088293;28;20043;-74
2020/12/30 04:11:38;;;;;;;39.80;22.23;;;3.00;94.10;;;;;;5058609;28;20047;-74
2020/12/30 04:14:04;;;;;;;40.73;22.40;;;3.00;93.80;;;;;;5075210;28;20477;-74
2020/12/30 04:16:30;;;;;;;41.33;22.30;;;3.00;93.70;;;;;;5076326;28;20032;-74
2020/12/30 04:18:55;;;;;;;40.97;22.47;;;3.00;93.60;;;;;;5079393;28;20028;-74
2020/12/30 04:21:22;;;;;;;39.87;22.47;;;3.00;93.60;;;;;;5095169;28;20067;-74
2020/12/30 04:23:52;;;;;;;40.77;22.70;;;3.00;93.60;;;;;;5095172;28;20163;-74
2020/12/30 04:26:18;;;;;;;42.70;22.00;;;3.00;93.60;;;;;;5096298;28;20121;-74
2020/12/30 04:28:44;;;;;;;40.00;21.33;;;3.00;93.60;;;;;;5075187;28;20016;-74
2020/12/30 04:31:11;;;;;;;46.77;23.37;;;2.90;93.60;;;;;;5074549;28;20057;-75
2020/12/30 04:33:37;;;;;;;47.37;24.03;;;2.90;93.70;;;;;;5074565;28;20005;-74
2020/12/30 04:36:03;;;;;;;46.23;24.93;;;2.90;93.70;;;;;;5075995;28;20098;-74
2020/12/30 04:38:29;;;;;;;43.70;24.03;;;2.90;93.70;;;;;;5075959;28;20025;-74
2020/12/30 04:40:59;;;;;;;43.93;24.57;;;2.90;93.70;;;;;;5078662;28;20070;-74
2020/12/30 04:43:30;;;;;;;41.10;23.27;;;2.90;93.70;;;;;;5074377;28;20499;-74
2020/12/30 04:45:56;;;;;;;47.77;24.97;;;2.90;93.70;;;;;;5074185;28;20476;-74
2020/12/30 04:48:24;;;;;;;46.50;26.47;;;2.90;93.70;;;;;;5074601;28;20032;-74
2020/12/30 04:50:50;;;;;;;44.67;24.03;;;2.90;93.80;;;;;;5075182;28;20511;-74
2020/12/30 04:53:18;;;;;;;47.27;26.43;;;2.90;94.20;;;;;;5074447;28;20021;-74
2020/12/30 04:55:47;;;;;;;46.17;26.93;;;2.90;94.00;;;;;;5075634;28;20383;-74
2020/12/30 04:58:15;;;;;;;45.13;25.00;;;3.00;94.10;;;;;;5074304;28;20163;-74
2020/12/30 05:00:42;;;;;;;42.37;24.00;;;3.00;94.10;;;;;;5074803;28;20036;-74
2020/12/30 05:03:11;;;;;;;45.43;24.13;;;3.00;94.10;;;;;;5077265;28;20081;-74
2020/12/30 05:05:38;;;;;;;42.40;23.10;;;3.00;94.10;;;;;;5095246;28;20023;-74
2020/12/30 05:08:15;;;;;;;43.77;23.30;;;3.10;94.20;;;;;;5095354;28;20018;-74
2020/12/30 05:10:46;;;;;;;41.27;24.00;;;3.10;94.20;;;;;;5093247;28;20036;-80
2020/12/30 05:13:12;;;;;;;43.07;24.57;;;3.10;94.20;;;;;;5094211;28;20514;-80
2020/12/30 05:15:38;;;;;;;44.63;25.67;;;3.10;94.20;;;;;;5094150;28;20060;-80
2020/12/30 05:18:05;;;;;;;43.57;23.47;;;3.10;94.20;;;;;;5095345;28;20529;-81
2020/12/30 05:20:37;;;;;;;44.10;25.23;;;3.10;94.20;;;;;;5078405;28;20360;-81
2020/12/30 05:23:10;;;;;;;48.00;25.90;;;3.20;94.20;;;;;;5074997;28;20056;-81
2020/12/30 05:25:37;;;;;;;46.47;27.20;;;3.20;94.30;;;;;;5073774;28;20029;-81
2020/12/30 05:28:07;;;;;;;50.13;27.57;;;3.20;94.30;;;;;;5074907;28;20070;-81
2020/12/30 05:30:33;;;;;;;49.43;25.13;;;3.20;94.40;;;;;;5091013;28;20460;-81
2020/12/30 05:33:00;;;;;;;49.70;28.10;;;3.20;94.40;;;;;;5076770;28;20028;-81
2020/12/30 05:35:29;;;;;;;46.97;26.60;;;3.30;94.40;;;;;;5089980;28;20376;-80
2020/12/30 05:37:55;;;;;;;46.47;27.00;;;3.30;94.40;;;;;;5056811;28;20029;-80
2020/12/30 05:40:26;;;;;;;43.70;25.37;;;3.30;94.40;;;;;;5087896;28;20028;-80
2020/12/30 05:42:53;;;;;;;41.87;24.00;;;3.30;94.40;;;;;;5093577;28;20019;-81
2020/12/30 05:45:23;;;;;;;44.40;26.37;;;3.30;94.40;;;;;;5093415;28;20052;-81
2020/12/30 05:47:50;;;;;;;45.40;26.67;;;3.40;94.40;;;;;;5094901;28;20023;-81
2020/12/30 05:50:25;;;;;;;42.87;25.97;;;3.40;94.40;;;;;;5081977;28;20499;-81
2020/12/30 05:52:52;;;;;;;41.90;24.57;;;3.40;94.60;;;;;;5074324;28;20027;-81
2020/12/30 05:55:27;;;;;;;42.73;24.07;;;3.40;94.30;;;;;;5072951;28;20051;-80
2020/12/30 05:57:53;;;;;;;42.30;24.17;;;3.50;94.30;;;;;;5073188;28;20029;-81
2020/12/30 06:00:19;;;;;;;39.07;24.23;;;3.40;94.20;;;;;;5084734;28;20035;-80
2020/12/30 06:02:46;;;;;;;41.27;24.33;;;3.40;94.20;;;;;;5093753;28;20028;-81
2020/12/30 06:05:24;;;;;;;41.47;26.17;;;3.40;94.10;;;;;;5093560;28;20389;-81
2020/12/30 06:07:51;;;;;;;43.90;24.93;;;3.40;94.20;;;;;;5094536;28;20077;-81
2020/12/30 06:10:19;;;;;;;38.90;23.03;;;3.40;94.10;;;;;;5082988;28;20484;-80
2020/12/30 06:12:47;;;;;;;42.10;23.07;;;3.40;94.10;;;;;;5056402;28;20026;-81
2020/12/30 06:15:15;;;;;;;39.10;22.13;;;3.40;94.10;;;;;;5073988;28;20032;-81
2020/12/30 06:18:01;;;;;;;38.93;23.73;;;3.40;94.20;;;;;;5073950;28;20029;-81
2020/12/30 06:20:34;;;;;;;41.60;24.63;;;3.40;94.20;;;;;;5084094;28;20028;-81
2020/12/30 06:23:10;;;;;;;41.80;23.30;;;3.40;94.20;;;;;;5094188;28;20039;-81
2020/12/30 06:25:40;;;;;;;41.03;23.73;;;3.40;94.20;;;;;;5092816;28;20032;-81
2020/12/30 06:28:17;;;;;;;40.10;24.23;;;3.40;94.50;;;;;;5090608;28;20012;-81
2020/12/30 06:30:44;;;;;;;42.00;24.80;;;3.40;94.30;;;;;;5093273;28;20112;-81
2020/12/30 06:33:11;;;;;;;47.30;25.10;;;3.40;94.30;;;;;;5092487;28;20027;-81
2020/12/30 06:35:39;;;;;;;43.83;24.70;;;3.50;94.30;;;;;;5091831;28;20035;-81
2020/12/30 06:38:22;;;;;;;41.47;24.67;;;3.50;94.40;;;;;;5094160;28;20024;-81
2020/12/30 06:40:52;;;;;;;40.20;23.53;;;3.50;94.40;;;;;;5079778;28;20108;-81
2020/12/30 06:43:40;;;;;;;39.87;23.23;;;3.60;94.40;;;;;;5072548;28;20141;-81
2020/12/30 06:46:12;;;;;;;44.27;24.73;;;3.60;94.40;;;;;;5072142;28;20444;-81
2020/12/30 06:48:56;;;;;;;43.77;25.37;;;3.50;94.40;;;;;;5072166;28;20032;-81
2020/12/30 06:51:23;;;;;;;39.75;24.40;;;3.60;94.40;;;;;;5088849;28;20028;-81
2020/12/30 06:53:53;;;;;;;43.80;24.50;;;3.70;94.40;;;;;;5093932;28;20468;-81
2020/12/30 06:56:38;;;;;;;42.37;25.00;;;3.70;94.40;;;;;;5076404;28;20033;-81
2020/12/30 06:59:05;;;;;;;41.60;24.20;;;3.70;94.40;;;;;;5094241;28;20024;-81
2020/12/30 07:02:13;;;;;;;33.37;21.37;;;3.70;94.40;;;;;;5071787;28;20449;-81
2020/12/30 07:04:39;;;;;;;44.53;24.33;;;3.70;94.40;;;;;;5073387;28;20033;-81
2020/12/30 07:07:30;;;;;;;43.83;22.90;;;3.70;94.70;;;;;;5055378;28;20036;-81
2020/12/30 07:09:56;;;;;;;38.40;23.30;;;3.70;94.40;;;;;;5069079;28;20033;-80
2020/12/30 07:12:37;;;;;;;41.60;23.90;;;3.70;94.40;;;;;;5055687;28;20032;-81
2020/12/30 07:15:04;;;;;;;38.10;21.37;;;3.80;94.40;;;;;;5077428;28;20032;-80
2020/12/30 07:17:29;;;;;;;42.80;24.03;;;3.70;94.30;;;;;;5076138;28;20032;-81
2020/12/30 07:19:55;;;;;;;43.43;24.50;;;3.70;94.30;;;;;;5043780;28;20021;-80
2020/12/30 07:22:25;;;;;;;41.47;24.47;;;3.70;94.20;;;;;;5076102;28;20025;-80
2020/12/30 07:24:53;;;;;;;40.00;23.67;;;3.80;94.60;;;;;;5077315;28;20115;-81
2020/12/30 07:27:21;;;;;;;39.33;23.63;;;3.80;94.30;;;;;;5092872;28;20020;-81
2020/12/30 07:29:48;;;;;;;38.67;22.93;;;3.80;94.30;;;;;;5078539;28;20024;-81
2020/12/30 07:32:15;;;;;;;38.73;23.37;;;3.80;94.30;;;;;;5095902;28;20032;-81
2020/12/30 07:34:41;;;;;;;45.33;23.77;;;3.80;94.30;;;;;;5095761;28;20046;-81
2020/12/30 07:37:07;;;;;;;43.43;23.73;;;3.80;94.30;;;;;;5097318;28;20028;-80
2020/12/30 07:39:39;;;;;;;39.07;22.10;;;3.80;94.30;;;;;;5078448;28;20040;-80
2020/12/30 07:42:11;;;;;;;37.13;22.97;;;3.80;94.30;;;;;;5075519;28;20045;-80
2020/12/30 07:44:45;;;;;;;39.33;22.50;;;3.90;94.30;;;;;;5059416;28;20439;-81
2020/12/30 07:47:12;;;;;;;33.53;20.47;;;3.90;94.30;;;;;;5077216;28;20073;-81
2020/12/30 07:49:37;;;;;;;35.27;20.77;;;3.90;94.60;;;;;;5076213;28;20032;-81
2020/12/30 07:52:04;;;;;;;37.87;21.67;;;3.90;94.30;;;;;;5076931;28;20037;-81
2020/12/30 07:54:30;;;;;;;34.03;20.17;;;4.00;94.30;;;;;;5076637;28;20035;-81
2020/12/30 07:57:11;;;;;;;40.27;23.17;;;4.00;94.30;;;;;;5075906;28;20082;-80
2020/12/30 07:59:39;;;;;;;40.43;22.53;;;4.00;94.30;;;;;;5076915;28;20033;-80
2020/12/30 08:02:12;;;;;;;40.40;23.30;;;4.00;94.30;;;;;;5058764;28;20124;-80
2020/12/30 08:04:39;;;;;;;39.43;22.47;;;4.00;94.30;;;;;;5075158;28;20042;-81
2020/12/30 08:07:06;;;;;;;43.73;22.47;;;4.00;94.40;;;;;;5075192;28;20086;-81
2020/12/30 08:09:33;;;;;;;38.73;22.17;;;4.00;94.70;;;;;;5088957;28;20510;-81
2020/12/30 08:12:04;;;;;;;36.97;21.40;;;4.00;94.50;;;;;;5096597;28;20036;-80
2020/12/30 08:14:31;;;;;;;36.67;21.47;;;4.00;94.50;;;;;;5095186;28;20027;-81
2020/12/30 08:17:05;;;;;;;37.87;21.70;;;4.00;94.50;;;;;;5061791;28;20032;-81
2020/12/30 08:19:48;;;;;;;36.97;20.25;;;4.00;94.50;;;;;;5083819;28;20476;-81
2020/12/30 08:22:14;;;;;;;38.23;20.10;;;4.10;94.60;;;;;;5079618;28;20016;-81
2020/12/30 08:24:45;;;;;;;38.20;21.97;;;4.10;94.60;;;;;;5094115;28;20035;-81
2020/12/30 08:27:16;;;;;;;35.77;22.50;;;4.10;94.60;;;;;;5078175;28;20027;-81
2020/12/30 08:29:43;;;;;;;33.37;21.30;;;4.10;94.60;;;;;;5095440;28;20516;-80
2020/12/30 08:32:15;;;;;;;34.57;21.53;;;4.10;94.60;;;;;;5094905;28;20023;-80
2020/12/30 08:34:50;;;;;;;34.77;20.80;;;4.10;94.60;;;;;;5083028;28;20380;-80
2020/12/30 08:37:31;;;;;;;38.83;21.27;;;4.10;94.60;;;;;;5075747;28;20074;-80
2020/12/30 08:40:06;;;;;;;37.40;22.60;;;4.10;94.60;;;;;;5088811;28;20032;-80
2020/12/30 08:42:35;;;;;;;;;;;4.20;94.70;;;;;;5094577;28;20024;-80
2020/12/30 08:45:03;;;;;;;33.97;21.33;;;4.20;94.70;;;;;;5087070;28;19927;-80
2020/12/30 08:47:37;;;;;;;36.47;21.37;;;4.20;94.60;;;;;;5090651;28;20425;-80
2020/12/30 08:50:08;;;;;;;35.20;21.98;;;4.30;94.70;;;;;;5078637;28;20012;-81
2020/12/30 08:52:43;;;;;;;39.27;23.23;;;4.30;94.90;;;;;;5069074;28;20036;-81
2020/12/30 08:55:10;;;;;;;37.03;22.40;;;4.30;94.60;;;;;;5074451;28;20441;-80
2020/12/30 08:57:42;;;;;;;38.77;22.47;;;4.30;94.60;;;;;;5074124;28;20020;-80
2020/12/30 09:00:12;;;;;;;40.80;22.87;;;4.30;94.80;;;;;;5074241;28;20020;-80
2020/12/30 09:02:37;;;;;;;42.17;24.23;;;4.30;94.60;;;;;;5081437;28;20029;-80
2020/12/30 09:05:03;;;;;;;44.10;23.27;;;4.30;94.60;;;;;;5094302;28;20411;-80
2020/12/30 09:07:29;;;;;;;39.17;23.87;;;4.40;94.60;;;;;;5094047;28;20024;-75
2020/12/30 09:10:21;;;;;;;41.07;24.70;;;4.40;94.60;;;;;;5075344;28;20020;-75
2020/12/30 09:12:47;;;;;;;39.07;23.23;;;4.40;94.60;;;;;;5094442;28;20444;-76
2020/12/30 09:15:14;;;;;;;41.53;24.97;;;4.40;94.60;;;;;;5087913;28;20028;-74
2020/12/30 09:17:40;;;;;;;37.67;24.57;;;4.40;94.50;;;;;;5078732;28;20033;-74
2020/12/30 09:20:10;;;;;;;41.30;24.87;;;4.50;94.50;;;;;;5074918;28;20036;-74
2020/12/30 09:22:35;;;;;;;41.67;25.10;;;4.50;94.50;;;;;;5081066;28;20480;-74
2020/12/30 09:25:01;;;;;;;43.00;24.60;;;4.50;94.50;;;;;;5061257;28;20039;-74
2020/12/30 09:27:29;;;;;;;39.60;24.83;;;4.60;94.50;;;;;;5084344;28;20029;-74
2020/12/30 09:30:14;;;;;;;44.43;25.70;;;4.60;94.50;;;;;;5087364;28;20036;-74
2020/12/30 09:32:42;;;;;;;39.70;24.00;;;4.60;94.50;;;;;;5085506;28;20025;-74
2020/12/30 09:35:12;;;;;;;34.80;22.03;;;4.80;94.50;;;;;;5082590;28;20028;-74
2020/12/30 09:37:39;;;;;;;39.67;23.50;;;4.70;94.50;;;;;;5088040;28;20032;-74
2020/12/30 09:40:15;;;;;;;36.73;22.53;;;4.80;94.50;;;;;;5099466;28;20106;-74
2020/12/30 09:42:43;;;;;;;39.60;23.87;;;4.80;94.50;;;;;;5076794;28;20124;-73
2020/12/30 09:45:14;;;;;;;36.03;21.53;;;4.90;94.40;;;;;;5084960;28;20237;-74
2020/12/30 09:47:41;;;;;;;35.20;20.73;;;4.90;94.40;;;;;;5080131;28;20443;-73
2020/12/30 09:50:08;;;;;;;37.97;22.37;;;5.00;94.40;;;;;;5083952;28;20032;-74
2020/12/30 09:52:38;;;;;;;35.93;22.10;;;5.00;94.30;;;;;;5079948;28;20016;-74
2020/12/30 09:55:05;;;;;;;37.20;20.87;;;5.00;94.30;;;;;;5072263;28;20025;-74
2020/12/30 09:57:31;;;;;;;34.30;20.60;;;5.10;94.20;;;;;;5060128;28;20033;-74
2020/12/30 09:59:57;;;;;;;35.67;21.10;;;5.10;94.20;;;;;;5080298;28;20530;-74
2020/12/30 10:02:22;;;;;;;33.00;21.77;;;5.10;94.10;;;;;;5075775;28;20051;-74
2020/12/30 10:04:48;;;;;;;35.73;21.23;;;5.30;94.10;;;;;;5080635;28;20040;-74
2020/12/30 10:07:13;;;;;;;32.20;19.50;;;5.20;94.00;;;;;;5078974;28;20029;-74
2020/12/30 10:09:39;;;;;;;35.83;19.63;;;5.30;94.10;;;;;;5085108;28;20074;-74
2020/12/30 10:12:05;;;;;;;35.03;20.90;;;5.30;94.00;;;;;;5071720;28;20070;-73
2020/12/30 10:14:30;;;;;;;33.53;20.80;;;5.30;93.80;;;;;;5077758;28;20024;-74
2020/12/30 10:16:56;;;;;;;32.90;21.47;;;5.50;93.90;;;;;;5067645;28;20031;-74
2020/12/30 10:19:22;;;;;;;35.57;21.67;;;5.40;93.80;;;;;;5091693;28;20031;-74
2020/12/30 10:21:47;;;;;;;36.67;21.20;;;5.40;93.60;;;;;;5076875;28;20024;-74
2020/12/30 10:24:13;;;;;;;33.70;21.70;;;5.40;93.50;;;;;;5099153;28;20039;-75
2020/12/30 10:26:39;;;;;;;35.43;21.57;;;5.60;93.50;;;;;;5078335;28;20044;-74
2020/12/30 10:29:04;;;;;;;36.13;20.47;;;5.60;93.40;;;;;;5079246;28;20028;-74
2020/12/30 10:31:30;;;;;;;33.63;20.80;;;5.50;93.40;;;;;;5083734;28;20457;-74
2020/12/30 10:33:56;;;;;;;33.63;21.37;;;5.50;93.30;;;;;;5086516;28;20050;-74
2020/12/30 10:36:28;;;;;;;30.43;19.57;;;5.50;93.30;;;;;;5090402;28;20468;-74
2020/12/30 10:38:55;;;;;;;37.93;21.50;;;5.50;93.40;;;;;;5090208;28;20100;-74
2020/12/30 10:41:20;;;;;;;35.43;20.50;;;5.50;93.30;;;;;;5097905;28;20114;-73
2020/12/30 10:43:46;;;;;;;33.17;21.43;;;5.50;93.30;;;;;;5070417;28;20536;-73
2020/12/30 10:46:16;;;;;;;35.97;21.83;;;5.50;93.30;;;;;;5101962;28;20044;-74
2020/12/30 10:48:46;;;;;;;35.63;21.53;;;5.50;93.20;;;;;;5066321;28;20028;-73
2020/12/30 10:51:16;;;;;;;32.50;21.03;;;5.50;93.20;;;;;;5078085;28;20048;-73
2020/12/30 10:53:43;;;;;;;39.80;23.23;;;5.50;93.40;;;;;;5088212;28;20020;-74
2020/12/30 10:56:09;;;;;;;34.87;21.17;;;5.40;93.20;;;;;;5081562;28;20031;-74
2020/12/30 10:58:36;;;;;;;31.97;21.03;;;5.40;93.20;;;;;;5086615;28;20093;-75
2020/12/30 11:01:09;;;;;;;33.07;20.80;;;5.50;93.30;;;;;;5079810;28;20423;-75
2020/12/30 11:03:34;;;;;;;34.53;21.07;;;5.50;93.30;;;;;;5083595;28;20032;-74
2020/12/30 11:06:01;;;;;;;31.77;21.20;;;5.50;93.30;;;;;;5082082;28;20086;-73
2020/12/30 11:08:27;;;;;;;34.20;21.40;;;5.60;93.40;;;;;;5080536;28;20024;-74
2020/12/30 11:10:57;;;;;;;32.47;20.73;;;5.70;93.30;;;;;;5048619;28;20090;-74
2020/12/30 11:13:24;;;;;;;36.00;21.60;;;5.70;93.40;;;;;;5083309;28;20501;-74
2020/12/30 11:15:49;;;;;;;34.70;19.83;;;5.80;93.30;;;;;;5062625;28;20028;-74
2020/12/30 11:18:15;;;;;;;33.20;20.13;;;5.90;93.30;;;;;;5075105;28;20024;-74
2020/12/30 11:20:40;;;;;;;30.77;18.83;;;6.00;93.30;;;;;;5074714;28;20020;-74
2020/12/30 11:23:06;;;;;;;26.10;17.63;;;6.10;93.30;;;;;;5075086;28;20035;-75
2020/12/30 11:25:32;;;;;;;32.67;20.20;;;6.10;93.20;;;;;;5057644;28;20127;-74
2020/12/30 11:27:57;;;;;;;30.30;19.87;;;6.10;92.80;;;;;;5092283;28;20038;-74
2020/12/30 11:30:23;;;;;;;30.43;19.87;;;6.20;92.70;;;;;;5092107;28;20085;-74
2020/12/30 11:32:48;;;;;;;32.97;21.33;;;6.10;92.60;;;;;;5091779;28;20028;-74
2020/12/30 11:35:14;;;;;;;29.43;18.77;;;6.10;92.70;;;;;;5074949;28;20032;-74
2020/12/30 11:37:39;;;;;;;29.90;18.77;;;6.00;92.60;;;;;;5092243;28;20024;-74
2020/12/30 11:40:05;;;;;;;31.53;17.47;;;6.00;92.70;;;;;;5075087;28;20114;-73
2020/12/30 11:42:31;;;;;;;25.10;17.17;;;6.00;92.70;;;;;;5091719;28;20028;-74
2020/12/30 11:44:57;;;;;;;27.67;18.13;;;6.10;92.80;;;;;;5091807;28;20040;-74
2020/12/30 11:47:26;;;;;;;28.70;16.23;;;6.10;92.70;;;;;;5091709;28;20048;-74
2020/12/30 11:49:52;;;;;;;31.70;18.20;;;6.20;92.80;;;;;;5058321;28;20047;-74
2020/12/30 11:52:18;;;;;;;28.00;17.47;;;6.20;92.70;;;;;;5091777;28;20028;-74
2020/12/30 11:54:44;;;;;;;24.57;16.40;;;6.30;92.80;;;;;;5091795;28;20103;-74
2020/12/30 11:57:11;;;;;;;25.70;15.63;;;6.40;93.00;;;;;;5093001;28;20047;-74
2020/12/30 11:59:36;;;;;;;24.33;15.13;;;6.50;92.90;;;;;;5077196;28;20434;-74
2020/12/30 12:02:02;;;;;;;20.97;13.83;;;6.60;92.70;;;;;;5061740;28;20052;-74
2020/12/30 12:04:28;;;;;;;19.83;12.77;;;6.70;92.90;;;;;;5061941;28;20046;-74
2020/12/30 12:07:01;;;;;;;19.70;11.73;;;6.70;92.40;;;;;;5096379;28;20055;-75
2020/12/30 12:09:28;;;;;;;17.77;11.23;;;6.80;92.40;;;;;;5096519;28;20028;-74
2020/12/30 12:11:55;;;;;;;17.30;11.83;;;6.80;92.10;;;;;;5096397;28;20491;-74
2020/12/30 12:14:21;;;;;;;14.80;10.03;;;6.90;91.90;;;;;;5096428;28;20073;-74
2020/12/30 12:16:57;;;;;;;17.60;10.53;;;7.00;92.00;;;;;;5078228;28;20483;-74
2020/12/30 12:19:24;;;;;;;16.13;9.13;;;7.10;92.10;;;;;;5078015;28;20032;-74
2020/12/30 12:21:50;;;;;;;14.33;8.90;;;7.40;92.50;;;;;;5094927;28;20379;-74
2020/12/30 12:24:17;;;;;;;13.80;8.00;;;7.50;92.20;;;;;;5078016;28;20065;-75
2020/12/30 12:26:44;;;;;;;15.23;8.00;;;7.60;91.30;;;;;;5094932;28;20024;-76
2020/12/30 12:29:33;;;;;;;15.77;9.60;;;7.60;90.90;;;;;;5092780;28;20107;-76
2020/12/30 12:32:13;;;;;;;15.40;9.37;;;7.50;90.50;;;;;;5074535;28;20025;-76
2020/12/30 12:34:41;;;;;;;16.03;8.77;;;7.50;90.30;;;;;;5080851;28;20025;-76
2020/12/30 12:37:08;;;;;;;13.20;7.93;;;7.50;90.40;;;;;;5075693;28;20044;-76
2020/12/30 12:39:36;;;;;;;16.03;8.90;;;7.40;90.50;;;;;;5057532;28;20085;-76
2020/12/30 12:42:03;;;;;;;14.30;8.60;;;7.40;90.60;;;;;;5075654;28;20496;-75